Time;durP1;ratioP1;P1;durP2;ratioP2;P2;SDS_P1;SDS_P2;PMS_P1;PMS_P2;Temp;Humidity;BMP_temperature;BMP_pressure;BME280_temperature;BME280_humidity;BME280_pressure;Samples;Min_cycle;Max_cycle;Signal;HPM_P1;HPM_P2
2022/11/15 00:00:31;;;;;;;;;6.50;6.00;;;;;11.65;72.30;99222.78;5138397;27;8837;-57
2022/11/15 00:02:59;;;;;;;;;9.25;9.00;;;;;11.72;71.68;99221.22;5138104;27;8818;-57
2022/11/15 00:05:27;;;;;;;;;9.75;9.50;;;;;11.82;72.50;99221.16;5137963;27;8814;-58
2022/11/15 00:07:57;;;;;;;;;7.25;6.25;;;;;11.90;72.41;99232.75;5137800;27;8915;-57
2022/11/15 00:10:26;;;;;;;;;9.00;7.00;;;;;11.97;71.98;99219.69;5137954;27;8813;-57
2022/11/15 00:12:54;;;;;;;;;9.00;8.00;;;;;12.05;72.48;99212.59;5137400;27;8822;-57
2022/11/15 00:15:21;;;;;;;;;7.50;7.25;;;;;12.08;72.87;99215.81;5138132;27;8927;-58
2022/11/15 00:17:49;;;;;;;;;9.00;8.50;;;;;12.15;72.87;99210.75;5137687;27;8826;-58
2022/11/15 00:20:18;;;;;;;;;11.50;10.00;;;;;12.18;72.93;99205.09;5135974;27;8853;-59
2022/11/15 00:22:46;;;;;;;;;10.00;9.25;;;;;12.21;72.40;99210.97;5136884;27;8836;-58
2022/11/15 00:25:14;;;;;;;;;9.25;8.50;;;;;12.25;73.09;99214.19;5137071;27;8826;-58
2022/11/15 00:27:42;;;;;;;;;0.00;0.00;;;;;12.29;72.98;99213.72;5137557;27;8814;-59
2022/11/15 00:30:10;;;;;;;;;1.00;1.00;;;;;12.33;72.79;99209.78;5137039;27;8804;-57
2022/11/15 00:32:40;;;;;;;;;6.00;6.00;;;;;12.35;72.54;99212.28;5137422;27;8843;-58
2022/11/15 00:35:08;;;;;;;;;5.25;5.25;;;;;12.35;73.06;99209.59;5138365;27;8815;-56
2022/11/15 00:37:35;;;;;;;;;8.00;7.00;;;;;12.33;73.17;99209.78;5137627;27;8811;-58
2022/11/15 00:40:03;;;;;;;;;9.00;7.50;;;;;12.31;73.38;99214.41;5137326;27;8851;-58
2022/11/15 00:42:31;;;;;;;;;6.75;5.75;;;;;12.32;73.13;99208.06;5137165;27;8811;-57
2022/11/15 00:44:58;;;;;;;;;11.50;10.50;;;;;12.35;73.68;99214.94;5137503;27;8807;-58
2022/11/15 00:47:26;;;;;;;;;9.50;9.50;;;;;12.36;73.58;99211.28;5137617;27;8841;-58
2022/11/15 00:49:54;;;;;;;;;4.00;4.00;;;;;12.35;73.00;99207.78;5137267;27;8807;-58
2022/11/15 00:52:22;;;;;;;;;12.75;9.50;;;;;12.32;73.30;99209.91;5137313;27;8815;-56
2022/11/15 00:54:49;;;;;;;;;6.75;6.75;;;;;12.32;73.52;99213.41;5157310;27;8828;-58
2022/11/15 00:57:18;;;;;;;;;9.25;9.00;;;;;12.32;74.29;99207.25;5157969;27;8868;-58
2022/11/15 00:59:46;;;;;;;;;9.00;8.00;;;;;12.34;73.94;99202.59;5157822;27;8816;-58
2022/11/15 01:02:14;;;;;;;;;11.50;11.50;;;;;12.35;73.58;99198.91;5157147;27;8819;-57
2022/11/15 01:04:41;;;;;;;;;8.00;7.00;;;;;12.36;73.76;99204.13;5156906;27;8835;-58
2022/11/15 01:07:09;;;;;;;;;5.50;5.50;;;;;12.39;73.99;99205.66;5146740;27;8965;-59
2022/11/15 01:09:37;;;;;;;;;6.75;6.25;;;;;12.44;74.05;99200.69;5136135;27;8838;-58
2022/11/15 01:12:05;;;;;;;;;9.75;8.75;;;;;12.49;73.93;99211.75;5135509;27;8840;-57
2022/11/15 01:14:32;;;;;;;;;9.50;9.25;;;;;12.55;73.43;99201.28;5135575;27;8817;-57
2022/11/15 01:17:00;;;;;;;;;8.50;8.50;;;;;12.58;73.71;99198.34;5135304;27;8826;-56
2022/11/15 01:19:28;;;;;;;;;9.00;7.50;;;;;12.62;73.40;99201.53;5135647;27;8829;-58
2022/11/15 01:21:56;;;;;;;;;10.00;10.00;;;;;12.63;73.33;99196.06;5135203;27;8817;-58
2022/11/15 01:24:24;;;;;;;;;9.00;9.00;;;;;12.66;73.43;99198.41;5140881;27;8802;-58
2022/11/15 01:26:51;;;;;;;;;12.75;12.00;;;;;12.69;73.68;99199.94;5135844;27;8834;-56
2022/11/15 01:29:19;;;;;;;;;5.00;4.00;;;;;12.71;73.93;99197.94;5136293;27;8822;-56
2022/11/15 01:31:47;;;;;;;;;7.50;6.50;;;;;12.75;73.54;99199.34;5136021;27;8815;-58
2022/11/15 01:34:17;;;;;;;;;8.00;7.00;;;;;12.75;73.30;99208.16;5136735;27;9466;-58
2022/11/15 01:36:45;;;;;;;;;7.50;7.00;;;;;12.78;73.29;99196.34;5136081;27;8831;-58
2022/11/15 01:39:13;;;;;;;;;6.00;6.00;;;;;12.78;73.83;99197.19;5136232;27;8923;-58
2022/11/15 01:41:40;;;;;;;;;12.50;12.50;;;;;12.79;73.94;99196.19;5136305;27;8858;-56
2022/11/15 01:44:08;;;;;;;;;6.75;6.75;;;;;12.80;73.64;99187.19;5137018;27;8854;-57
2022/11/15 01:46:37;;;;;;;;;10.00;9.75;;;;;12.85;73.28;99184.84;5135485;27;8806;-58
2022/11/15 01:49:05;;;;;;;;;8.50;7.00;;;;;12.88;73.44;99184.56;5118974;27;8798;-58
2022/11/15 01:51:33;;;;;;;;;8.50;7.50;;;;;12.92;73.40;99185.91;5136566;27;8806;-56
2022/11/15 01:54:01;;;;;;;;;9.50;9.00;;;;;12.97;73.72;99185.47;5138765;27;8862;-56
2022/11/15 01:56:28;;;;;;;;;8.25;8.00;;;;;12.98;73.41;99180.00;5139769;27;8876;-58
2022/11/15 01:58:56;;;;;;;;;8.25;7.50;;;;;12.99;73.47;99178.16;5140076;27;8837;-58
2022/11/15 02:01:23;;;;;;;;;11.50;11.00;;;;;12.97;73.46;99172.97;5139831;27;8825;-58
2022/11/15 02:03:51;;;;;;;;;9.00;8.00;;;;;12.94;73.86;99170.63;5140434;27;8841;-55
2022/11/15 02:06:19;;;;;;;;;6.50;6.50;;;;;12.90;73.78;99165.72;5139431;27;8806;-58
2022/11/15 02:08:46;;;;;;;;;10.00;10.00;;;;;12.85;74.04;99165.34;5139862;27;8834;-57
2022/11/15 02:11:14;;;;;;;;;10.50;9.00;;;;;12.81;74.31;99171.97;5140350;27;8867;-58
2022/11/15 02:13:42;;;;;;;;;7.00;6.50;;;;;12.78;74.00;99167.81;5136251;27;8798;-57
2022/11/15 02:16:10;;;;;;;;;9.50;9.50;;;;;12.75;74.34;99161.94;5140279;27;8806;-58
2022/11/15 02:18:37;;;;;;;;;6.25;5.00;;;;;12.68;74.47;99166.22;5140016;27;8799;-56
2022/11/15 02:21:05;;;;;;;;;9.75;9.00;;;;;12.63;74.41;99161.31;5140011;27;9524;-58
2022/11/15 02:23:32;;;;;;;;;8.00;7.00;;;;;12.61;75.12;99165.16;5149107;27;8804;-58
2022/11/15 02:26:01;;;;;;;;;9.00;8.00;;;;;12.58;74.61;99171.63;5160945;27;8812;-58
2022/11/15 02:28:28;;;;;;;;;11.25;8.75;;;;;12.57;74.52;99166.44;5161070;27;8815;-58
2022/11/15 02:30:56;;;;;;;;;10.25;7.50;;;;;12.53;74.68;99173.09;5146626;27;8818;-58
2022/11/15 02:33:23;;;;;;;;;8.50;7.50;;;;;12.50;74.37;99168.03;5139993;27;8822;-58
2022/11/15 02:35:51;;;;;;;;;8.00;8.00;;;;;12.44;75.41;99168.63;5140065;27;8818;-58
2022/11/15 02:38:19;;;;;;;;;9.00;9.00;;;;;12.41;75.07;99169.81;5139732;27;8849;-58
2022/11/15 02:40:47;;;;;;;;;10.00;9.25;;;;;12.41;75.35;99158.28;5139685;27;8898;-58
2022/11/15 02:46:02;;;;;;;;;9.50;8.00;;;;;12.47;75.10;99160.34;5139755;27;8806;-58
2022/11/15 02:48:30;;;;;;;;;10.75;9.50;;;;;12.50;74.63;99152.84;5139173;27;8816;-58
2022/11/15 02:50:58;;;;;;;;;9.75;9.00;;;;;12.53;75.02;99149.88;5139140;27;8822;-57
2022/11/15 02:53:25;;;;;;;;;9.25;7.50;;;;;12.58;74.60;99144.06;5139263;27;8802;-59
2022/11/15 02:55:53;;;;;;;;;8.50;7.50;;;;;12.61;74.67;99143.78;5139491;27;9516;-58
2022/11/15 02:58:23;;;;;;;;;6.50;6.50;;;;;12.66;74.40;99141.47;5139093;27;8806;-59
2022/11/15 03:00:51;;;;;;;;;9.00;8.00;;;;;12.71;74.62;99141.84;5139240;27;8890;-58
2022/11/15 03:03:19;;;;;;;;;8.00;7.25;;;;;12.76;75.01;99134.22;5137818;27;8810;-58
2022/11/15 03:05:46;;;;;;;;;4.50;4.00;;;;;12.78;74.10;99140.22;5138863;27;8882;-58
2022/11/15 03:08:14;;;;;;;;;10.50;9.50;;;;;12.82;74.59;99139.75;5137991;27;9504;-58
2022/11/15 03:10:42;;;;;;;;;11.25;11.00;;;;;12.85;74.50;99146.63;5137666;27;8814;-57
2022/11/15 03:13:10;;;;;;;;;6.50;6.00;;;;;12.89;74.14;99140.81;5137763;27;8898;-56
2022/11/15 03:15:37;;;;;;;;;7.00;7.00;;;;;12.94;74.23;99138.56;5137402;27;8798;-57
2022/11/15 03:18:05;;;;;;;;;10.00;9.25;;;;;12.97;74.09;99134.72;5137708;27;8814;-57
2022/11/15 03:20:33;;;;;;;;;5.50;5.50;;;;;13.02;74.64;99137.75;5138145;27;8882;-58
2022/11/15 03:23:03;;;;;;;;;7.00;6.25;;;;;13.08;74.27;99127.25;5143016;27;8826;-58
2022/11/15 03:25:31;;;;;;;;;7.00;6.25;;;;;13.13;73.96;99124.16;5150221;27;8818;-57
2022/11/15 03:27:58;;;;;;;;;3.00;3.00;;;;;13.17;74.12;99129.00;5138589;27;8802;-55
2022/11/15 03:30:26;;;;;;;;;7.00;6.50;;;;;13.20;74.01;99142.06;5118050;28;8831;-57
2022/11/15 03:32:53;;;;;;;;;5.50;4.00;;;;;13.24;74.10;99142.56;5134548;27;8801;-58
2022/11/15 03:35:22;;;;;;;;;6.25;6.00;;;;;13.26;74.53;99141.44;5138732;27;8833;-57
2022/11/15 03:37:50;;;;;;;;;9.75;9.25;;;;;13.27;74.50;99151.13;5139137;27;8817;-58
2022/11/15 03:40:18;;;;;;;;;2.00;2.00;;;;;13.31;73.88;99148.97;5138960;27;9508;-58
2022/11/15 03:42:45;;;;;;;;;7.50;6.00;;;;;13.31;74.36;99148.97;5138190;27;8817;-57
2022/11/15 03:45:14;;;;;;;;;4.00;4.00;;;;;13.30;74.35;99148.13;5138879;27;8840;-56
2022/11/15 03:47:43;;;;;;;;;1.50;1.00;;;;;13.32;73.92;99146.16;5138654;27;9553;-58
2022/11/15 03:50:10;;;;;;;;;6.00;6.00;;;;;13.32;74.81;99147.97;5138150;27;8818;-58
2022/11/15 03:52:38;;;;;;;;;7.50;7.50;;;;;13.33;74.50;99147.81;5137469;27;8900;-57
2022/11/15 03:55:06;;;;;;;;;6.00;5.50;;;;;13.35;74.10;99145.00;5138371;27;8893;-58
2022/11/15 03:57:33;;;;;;;;;9.00;6.50;;;;;13.34;74.36;99135.28;5138232;27;8890;-55
2022/11/15 04:00:01;;;;;;;;;7.00;7.00;;;;;13.35;74.12;99139.66;5137725;27;8806;-55
2022/11/15 04:02:29;;;;;;;;;9.25;7.50;;;;;13.37;74.66;99130.44;5136954;27;9545;-57
2022/11/15 04:04:57;;;;;;;;;6.25;6.25;;;;;13.39;74.78;99119.59;5137369;27;8810;-56
2022/11/15 04:07:24;;;;;;;;;5.00;5.00;;;;;13.40;74.42;99118.59;5137791;27;8793;-57
2022/11/15 04:10:05;;;;;;;;;6.75;5.50;;;;;13.40;73.86;99113.25;5138378;27;8825;-58
2022/11/15 04:12:33;;;;;;;;;8.00;6.75;;;;;13.40;74.08;99115.91;5138047;27;8840;-57
2022/11/15 04:15:09;;;;;;;;;7.00;6.75;;;;;13.41;74.51;99117.59;5137165;27;8815;-58
2022/11/15 04:17:37;;;;;;;;;7.25;6.75;;;;;13.42;75.10;99109.41;5137362;27;8794;-56
2022/11/15 04:25:36;;;;;;;;;6.50;6.00;;;;;13.43;74.30;99095.03;5137456;27;8868;-56
2022/11/15 04:28:03;;;;;;;;;9.25;9.00;;;;;13.44;74.81;99101.25;5137407;27;8909;-57
2022/11/15 04:30:31;;;;;;;;;9.25;7.50;;;;;13.45;74.91;99103.72;5137301;27;8868;-58
2022/11/15 04:32:59;;;;;;;;;6.00;4.50;;;;;13.47;74.35;99098.22;5137651;27;8888;-58
2022/11/15 04:35:26;;;;;;;;;7.50;7.00;;;;;13.48;74.53;99110.59;5137278;27;8807;-56
2022/11/15 04:37:54;;;;;;;;;4.50;4.50;;;;;13.50;74.88;99108.59;5137181;27;8845;-58
2022/11/15 04:40:21;;;;;;;;;7.00;7.00;;;;;13.50;74.50;99104.09;5137088;27;8890;-58
2022/11/15 04:42:49;;;;;;;;;3.75;3.50;;;;;13.52;74.83;99104.78;5136855;27;8810;-57
2022/11/15 04:45:17;;;;;;;;;9.75;9.25;;;;;13.52;74.45;99109.31;5136794;27;8809;-58
2022/11/15 04:47:45;;;;;;;;;6.00;6.00;;;;;13.54;74.26;99101.94;5137084;27;8866;-59
2022/11/15 04:50:14;;;;;;;;;6.00;6.00;;;;;13.55;74.42;99107.16;5137102;27;8837;-58
2022/11/15 04:52:42;;;;;;;;;6.75;6.75;;;;;13.55;74.70;99104.47;5136675;27;8810;-59
2022/11/15 04:55:09;;;;;;;;;8.00;8.00;;;;;13.56;74.32;99106.13;5136859;27;8913;-58
2022/11/15 04:57:37;;;;;;;;;6.75;6.50;;;;;13.58;74.30;99097.97;5137182;27;8877;-58
2022/11/15 05:00:05;;;;;;;;;7.75;6.50;;;;;13.59;74.59;99099.63;5137092;27;8822;-58
2022/11/15 05:05:14;;;;;;;;;4.00;4.00;;;;;13.59;74.70;99102.31;5136004;27;8834;-58
2022/11/15 05:07:42;;;;;;;;;11.75;8.00;;;;;13.57;74.79;99094.44;5136015;27;8883;-58
2022/11/15 05:10:09;;;;;;;;;8.00;7.00;;;;;13.57;74.70;99090.91;5136093;27;8814;-58
2022/11/15 05:12:37;;;;;;;;;6.00;6.00;;;;;13.56;74.88;99102.63;5135866;27;8898;-58
2022/11/15 05:15:05;;;;;;;;;7.00;7.00;;;;;13.52;74.33;99093.25;5135671;27;8886;-59
2022/11/15 05:17:32;;;;;;;;;5.75;5.75;;;;;13.46;74.95;99088.53;5136795;27;8841;-58
2022/11/15 05:20:00;;;;;;;;;6.75;6.75;;;;;13.42;74.69;99100.53;5136743;27;8927;-58
2022/11/15 05:22:28;;;;;;;;;5.50;5.50;;;;;13.36;75.08;99103.88;5136434;27;8834;-58
2022/11/15 05:24:55;;;;;;;;;4.00;4.00;;;;;13.30;75.50;99109.88;5136317;27;8971;-58
2022/11/15 05:27:26;;;;;;;;;8.25;7.75;;;;;13.27;74.92;99110.16;5135967;27;8834;-58
2022/11/15 05:29:54;;;;;;;;;7.00;5.50;;;;;13.26;75.62;99117.38;5135526;27;9528;-59
2022/11/15 05:32:22;;;;;;;;;6.25;6.00;;;;;13.27;75.24;99110.16;5135386;27;8805;-58
2022/11/15 05:34:49;;;;;;;;;5.00;5.00;;;;;13.28;75.77;99115.34;5135276;27;8901;-58
2022/11/15 05:37:17;;;;;;;;;7.00;5.75;;;;;13.33;75.58;99114.88;5136186;27;8822;-58
2022/11/15 05:39:45;;;;;;;;;6.00;4.00;;;;;13.35;75.02;99111.06;5136356;27;8830;-58
2022/11/15 05:42:12;;;;;;;;;7.00;6.75;;;;;13.35;75.67;99099.53;5135336;27;8833;-57
2022/11/15 05:44:40;;;;;;;;;6.50;6.50;;;;;13.33;75.22;99102.38;5135584;27;8918;-58
2022/11/15 05:47:08;;;;;;;;;4.00;4.00;;;;;13.29;75.87;99102.84;5135588;27;8960;-58
2022/11/15 05:49:36;;;;;;;;;3.75;3.75;;;;;13.25;76.08;99109.50;5136024;27;8829;-58
2022/11/15 05:52:04;;;;;;;;;6.00;6.00;;;;;13.20;75.84;99101.13;5136134;27;8885;-58
2022/11/15 05:54:31;;;;;;;;;4.00;4.00;;;;;13.16;75.64;99102.44;5136082;27;8857;-59
2022/11/15 05:56:59;;;;;;;;;1.00;1.00;;;;;13.13;76.40;99100.09;5136514;27;8837;-58
2022/11/15 05:59:27;;;;;;;;;4.00;4.00;;;;;13.09;76.36;99101.38;5135752;27;8837;-59
2022/11/15 06:01:55;;;;;;;;;4.00;4.00;;;;;13.02;76.37;99095.00;5135787;27;8806;-58
2022/11/15 06:04:23;;;;;;;;;5.50;5.50;;;;;12.96;76.21;99090.28;5135035;27;8834;-58
2022/11/15 06:06:51;;;;;;;;;3.50;1.00;;;;;12.90;76.34;99097.06;5135605;27;8853;-59
2022/11/15 06:09:19;;;;;;;;;5.00;4.00;;;;;12.85;76.97;99111.91;5134690;27;8834;-58
2022/11/15 06:11:47;;;;;;;;;3.00;3.00;;;;;12.79;76.61;99100.00;5135327;27;8818;-57
2022/11/15 06:14:15;;;;;;;;;6.00;4.00;;;;;12.77;76.64;99111.84;5134706;27;8839;-59
2022/11/15 06:16:43;;;;;;;;;5.00;4.00;;;;;12.77;76.70;99107.31;5134765;27;8918;-59
2022/11/15 06:19:11;;;;;;;;;4.00;4.00;;;;;12.73;77.01;99108.63;5135134;27;8821;-58
2022/11/15 06:21:39;;;;;;;;;6.25;4.00;;;;;12.77;76.94;99117.19;5133294;27;9646;-58
2022/11/15 06:24:07;;;;;;;;;4.00;3.75;;;;;12.80;76.98;99122.19;5132139;27;8821;-57
2022/11/15 06:26:35;;;;;;;;;4.00;3.25;;;;;12.85;77.21;99130.59;5132629;27;8868;-57
2022/11/15 06:29:03;;;;;;;;;6.00;3.75;;;;;12.91;76.81;99138.00;5131779;27;8814;-58
2022/11/15 06:31:31;;;;;;;;;1.00;1.00;;;;;12.96;76.54;99133.88;5131819;27;8815;-58
2022/11/15 06:33:59;;;;;;;;;1.50;1.50;;;;;13.00;76.41;99134.41;5132321;27;8806;-58
2022/11/15 06:36:27;;;;;;;;;1.50;1.50;;;;;13.04;76.63;99133.94;5133419;27;8841;-58
2022/11/15 06:38:55;;;;;;;;;2.50;2.50;;;;;13.08;76.42;99134.47;5133950;27;8826;-58
2022/11/15 06:41:24;;;;;;;;;4.00;3.25;;;;;13.11;76.22;99143.00;5137055;27;8855;-58
2022/11/15 06:43:52;;;;;;;;;3.00;3.00;;;;;13.14;75.90;99137.34;5137363;27;9503;-58
2022/11/15 06:46:20;;;;;;;;;4.50;3.50;;;;;13.17;76.53;99137.03;5137251;27;8825;-57
2022/11/15 06:48:49;;;;;;;;;3.50;3.00;;;;;13.20;75.87;99139.38;5137807;27;8813;-58
2022/11/15 06:51:16;;;;;;;;;1.00;1.00;;;;;13.23;75.35;99144.41;5137345;27;8821;-56
2022/11/15 06:53:45;;;;;;;;;3.00;3.00;;;;;13.26;75.96;99152.13;5147593;27;9494;-58
2022/11/15 06:56:13;;;;;;;;;0.50;0.50;;;;;13.29;75.56;99150.97;5158371;27;8816;-58
2022/11/15 06:58:41;;;;;;;;;1.00;1.00;;;;;13.33;75.67;99157.66;5143271;27;8833;-58
2022/11/15 07:01:09;;;;;;;;;0.50;0.50;;;;;13.36;75.35;99160.03;5137197;27;8861;-58
2022/11/15 07:03:37;;;;;;;;;3.00;1.50;;;;;13.37;75.61;99143.00;5135765;27;8817;-58
2022/11/15 07:06:04;;;;;;;;;0.00;0.00;;;;;13.37;75.32;99157.19;5135512;27;8809;-57
2022/11/15 07:08:34;;;;;;;;;2.00;2.00;;;;;13.39;75.23;99154.38;5136002;27;9632;-55
2022/11/15 07:11:02;;;;;;;;;2.00;2.00;;;;;13.41;75.25;99160.38;5135680;27;8887;-58
2022/11/15 07:13:30;;;;;;;;;3.00;1.00;;;;;13.44;74.95;99165.44;5135790;27;8836;-58
2022/11/15 07:15:58;;;;;;;;;3.50;2.50;;;;;13.44;75.40;99171.59;5135925;27;8813;-57
2022/11/15 07:18:27;;;;;;;;;2.00;1.50;;;;;13.40;75.40;99164.06;5136273;27;8825;-58
2022/11/15 07:20:55;;;;;;;;;1.00;1.00;;;;;13.35;74.96;99169.88;5134650;27;8825;-58
2022/11/15 07:23:22;;;;;;;;;3.25;3.00;;;;;13.30;75.59;99160.66;5135100;27;8817;-59
2022/11/15 07:25:50;;;;;;;;;1.50;1.50;;;;;13.25;75.65;99161.16;5136482;27;8817;-58
2022/11/15 07:28:18;;;;;;;;;3.00;3.00;;;;;13.21;75.14;99173.13;5135697;27;8802;-58
2022/11/15 07:30:46;;;;;;;;;2.50;2.50;;;;;13.17;75.47;99170.94;5135508;27;8827;-59
2022/11/15 07:33:13;;;;;;;;;3.00;2.00;;;;;13.13;75.50;99174.94;5134613;27;8821;-59
2022/11/15 07:35:42;;;;;;;;;3.00;3.00;;;;;13.08;75.96;99183.41;5134874;27;8948;-58
2022/11/15 07:38:10;;;;;;;;;1.00;1.00;;;;;13.04;76.06;99176.72;5136442;27;8837;-56
2022/11/15 07:40:37;;;;;;;;;3.75;2.50;;;;;13.03;75.86;99185.72;5136492;27;8971;-58
2022/11/15 07:43:06;;;;;;;;;0.00;0.00;;;;;13.03;75.53;99192.88;5135517;27;8899;-58
2022/11/15 07:45:34;;;;;;;;;2.00;1.00;;;;;13.03;75.29;99175.03;5115149;28;8919;-57
2022/11/15 07:48:02;;;;;;;;;3.00;1.00;;;;;13.06;75.67;99187.25;5134259;27;8848;-57
2022/11/15 07:50:30;;;;;;;;;1.00;1.00;;;;;13.06;74.91;99187.25;5135191;27;8821;-58
2022/11/15 07:52:58;;;;;;;;;1.00;1.00;;;;;13.05;75.41;99185.56;5134239;27;8826;-57
2022/11/15 07:55:27;;;;;;;;;3.50;2.00;;;;;13.04;75.38;99181.19;5134929;27;8856;-57
2022/11/15 07:57:54;;;;;;;;;3.00;3.00;;;;;13.03;74.65;99192.88;5134797;27;8814;-56
2022/11/15 08:00:23;;;;;;;;;3.00;3.00;;;;;13.02;75.43;99185.88;5134486;27;8863;-56
2022/11/15 08:02:51;;;;;;;;;1.00;1.00;;;;;13.02;75.10;99185.88;5134905;27;8999;-56
2022/11/15 08:05:19;;;;;;;;;1.00;1.00;;;;;13.03;74.76;99187.53;5135425;27;8836;-56
2022/11/15 08:07:47;;;;;;;;;1.50;1.50;;;;;13.01;75.11;99190.38;5135994;27;8833;-57
2022/11/15 08:10:16;;;;;;;;;1.50;1.50;;;;;13.03;74.55;99188.41;5135796;27;8846;-57
2022/11/15 08:12:44;;;;;;;;;3.00;1.00;;;;;13.07;74.64;99194.28;5135724;27;8836;-56
2022/11/15 08:15:12;;;;;;;;;1.00;0.75;;;;;13.09;74.27;99185.09;5135569;27;8799;-57
2022/11/15 08:17:40;;;;;;;;;1.00;1.00;;;;;13.13;74.27;99183.78;5134990;27;8822;-56
2022/11/15 08:20:08;;;;;;;;;1.00;1.00;;;;;13.13;73.97;99180.28;5134557;27;8818;-59
2022/11/15 08:22:36;;;;;;;;;1.00;0.75;;;;;13.15;73.97;99178.28;5134132;27;8845;-55
2022/11/15 08:25:05;;;;;;;;;2.50;2.50;;;;;13.16;73.79;99174.63;5133898;27;8929;-58
2022/11/15 08:27:33;;;;;;;;;0.00;0.00;;;;;13.18;73.67;99188.66;5133788;27;8856;-58
2022/11/15 08:30:01;;;;;;;;;1.00;1.00;;;;;13.20;73.86;99179.47;5133665;27;8903;-58
2022/11/15 08:32:31;;;;;;;;;1.00;1.00;;;;;13.24;72.96;99172.84;5133642;27;8821;-58
2022/11/15 08:34:58;;;;;;;;;1.00;0.00;;;;;13.28;73.32;99173.38;5134534;27;8868;-59
2022/11/15 08:37:27;;;;;;;;;1.00;1.00;;;;;13.32;72.97;99180.06;5134366;27;9492;-58
2022/11/15 08:39:54;;;;;;;;;2.00;2.00;;;;;13.36;72.11;99170.75;5135223;27;8826;-58
2022/11/15 08:42:22;;;;;;;;;1.00;1.00;;;;;13.41;72.37;99165.72;5135905;27;8967;-59
2022/11/15 08:44:51;;;;;;;;;1.00;1.00;;;;;13.44;72.45;99173.47;5135734;27;8836;-58
2022/11/15 08:47:19;;;;;;;;;0.50;0.50;;;;;13.46;72.06;99169.63;5135614;27;8817;-58
2022/11/15 08:49:47;;;;;;;;;0.75;0.75;;;;;13.50;71.99;99165.63;5135621;27;8822;-58
2022/11/15 08:52:15;;;;;;;;;0.00;0.00;;;;;13.54;71.11;99171.50;5135352;27;8890;-59
2022/11/15 08:54:43;;;;;;;;;2.00;2.00;;;;;13.57;71.42;99169.34;5146417;27;8814;-59
2022/11/15 08:57:11;;;;;;;;;0.00;0.00;;;;;13.59;72.10;99170.00;5135281;27;8809;-59
2022/11/15 08:59:39;;;;;;;;;1.00;1.00;;;;;13.64;71.04;99166.84;5135122;27;8833;-57
2022/11/15 09:02:07;;;;;;;;;1.00;1.00;;;;;13.67;70.93;99167.38;5134318;27;8825;-58
2022/11/15 09:04:35;;;;;;;;;0.00;0.00;;;;;13.72;71.07;99161.53;5134479;27;8834;-58
2022/11/15 09:07:03;;;;;;;;;3.00;3.00;;;;;13.75;71.39;99161.22;5133724;27;8810;-58
2022/11/15 09:09:32;;;;;;;;;0.25;0.25;;;;;13.78;70.34;99169.78;5133416;27;8844;-58
2022/11/15 09:12:00;;;;;;;;;0.00;0.00;;;;;13.80;70.33;99158.88;5133649;27;8848;-58
2022/11/15 09:14:29;;;;;;;;;0.00;0.00;;;;;13.82;70.44;99163.09;5132410;27;8910;-58
2022/11/15 09:16:58;;;;;;;;;1.00;1.00;;;;;13.84;70.05;99157.59;5132910;27;8829;-58
2022/11/15 09:19:25;;;;;;;;;0.25;0.25;;;;;13.89;70.17;99165.97;5133692;27;8883;-57
2022/11/15 09:21:54;;;;;;;;;1.00;1.00;;;;;13.91;69.55;99164.81;5134180;27;8843;-58
2022/11/15 09:24:22;;;;;;;;;2.00;1.00;;;;;13.94;69.83;99155.59;5150416;27;8819;-58
2022/11/15 09:26:50;;;;;;;;;0.00;0.00;;;;;13.95;69.34;99155.44;5138758;27;8818;-58
2022/11/15 09:29:36;;;;;;;;;2.00;1.00;;;;;13.98;69.08;99155.09;5135282;27;8802;-59
2022/11/15 09:32:04;;;;;;;;;1.00;1.00;;;;;14.00;69.30;99152.28;5135410;27;9531;-58
2022/11/15 09:34:32;;;;;;;;;1.00;0.75;;;;;14.00;69.45;99155.81;5134571;27;8932;-58
2022/11/15 09:37:01;;;;;;;;;1.00;1.00;;;;;14.03;69.59;99151.97;5135647;27;8825;-58
2022/11/15 09:39:28;;;;;;;;;1.00;1.00;;;;;14.04;69.44;99153.66;5133734;27;8863;-58
2022/11/15 09:41:56;;;;;;;;;1.00;1.00;;;;;14.07;69.26;99147.94;5133139;27;8914;-58
2022/11/15 09:44:26;;;;;;;;;2.50;2.00;;;;;14.11;68.96;99149.31;5131984;27;8805;-58
2022/11/15 09:46:55;;;;;;;;;0.25;0.25;;;;;14.14;68.24;99141.78;5131568;27;8853;-58
2022/11/15 09:49:23;;;;;;;;;1.00;1.00;;;;;14.21;68.48;99128.59;5130884;27;8905;-58
2022/11/15 09:51:51;;;;;;;;;1.00;1.00;;;;;14.31;67.91;99131.97;5131530;27;8837;-58
2022/11/15 09:54:19;;;;;;;;;1.00;1.00;;;;;14.40;67.75;99133.63;5132313;27;8964;-56
2022/11/15 09:57:07;;;;;;;;;0.00;0.00;;;;;14.55;67.61;99129.28;5131664;27;8818;-58
2022/11/15 09:59:42;;;;;;;;;0.75;0.50;;;;;14.75;67.21;99131.50;5133524;27;8825;-58
2022/11/15 10:02:09;;;;;;;;;0.00;0.00;;;;;15.07;65.91;99128.78;5134481;27;8844;-58
2022/11/15 10:04:37;;;;;;;;;0.00;0.00;;;;;15.30;65.49;99123.53;5134459;27;8833;-59
2022/11/15 10:07:05;;;;;;;;;1.00;1.00;;;;;15.27;65.25;99130.09;5133899;27;8825;-58
2022/11/15 10:09:35;;;;;;;;;2.50;1.00;;;;;15.26;65.41;99130.25;5134896;27;8833;-58
2022/11/15 10:12:04;;;;;;;;;0.50;0.00;;;;;15.35;65.10;99129.25;5133351;27;8840;-58
2022/11/15 10:14:32;;;;;;;;;1.00;1.00;;;;;15.49;64.38;99126.69;5135445;27;8815;-59
2022/11/15 10:16:59;;;;;;;;;1.00;0.25;;;;;15.51;63.41;99126.50;5137765;27;8818;-57
2022/11/15 10:19:27;;;;;;;;;2.50;2.50;;;;;15.63;63.34;99117.91;5137285;27;8810;-59
2022/11/15 10:21:55;;;;;;;;;1.00;0.75;;;;;15.57;63.42;99110.56;5137491;27;8952;-59
2022/11/15 10:24:23;;;;;;;;;0.50;0.50;;;;;15.59;63.57;99102.34;5137206;27;8817;-59
2022/11/15 10:26:51;;;;;;;;;0.00;0.00;;;;;15.68;63.77;99107.50;5137593;27;8868;-58
2022/11/15 10:29:19;;;;;;;;;0.50;0.00;;;;;15.71;63.89;99101.75;5138240;27;8848;-58
2022/11/15 10:31:53;;;;;;;;;0.00;0.00;;;;;15.77;63.39;99102.94;5138196;27;8823;-58
2022/11/15 10:34:22;;;;;;;;;2.00;2.00;;;;;15.80;63.25;99095.38;5137219;27;8960;-59
2022/11/15 10:36:50;;;;;;;;;1.50;1.00;;;;;15.85;62.98;99090.28;5137382;27;8802;-59
2022/11/15 10:39:17;;;;;;;;;0.00;0.00;;;;;15.96;62.62;99075.63;5137077;27;8918;-58
2022/11/15 10:42:03;;;;;;;;;1.00;1.00;;;;;16.11;61.91;99066.66;5118768;27;8792;-58
2022/11/15 10:44:40;;;;;;;;;0.20;0.00;;;;;16.31;60.77;99065.97;5136200;27;8818;-57
2022/11/15 10:47:08;;;;;;;;;1.00;1.00;;;;;16.32;60.54;99059.59;5136609;27;8826;-58
2022/11/15 10:49:36;;;;;;;;;0.00;0.00;;;;;16.46;60.19;99058.84;5135649;27;8845;-58
2022/11/15 10:52:04;;;;;;;;;0.00;0.00;;;;;16.67;59.95;99037.50;5135708;27;8828;-58
2022/11/15 10:54:33;;;;;;;;;1.00;0.60;;;;;16.84;59.69;99039.00;5149252;27;8829;-59
2022/11/15 10:57:00;;;;;;;;;1.00;1.00;;;;;17.01;59.46;99035.09;5136174;27;8826;-58
2022/11/15 10:59:29;;;;;;;;;1.00;1.00;;;;;17.11;58.88;99035.69;5135381;27;8829;-58
2022/11/15 11:02:04;;;;;;;;;1.00;0.80;;;;;16.89;59.23;99028.53;5135501;27;8845;-56
2022/11/15 11:04:32;;;;;;;;;1.00;1.00;;;;;16.60;60.03;99036.53;5135851;27;8818;-58
2022/11/15 11:07:00;;;;;;;;;0.00;0.00;;;;;16.43;59.70;99024.28;5135373;27;8895;-58
2022/11/15 11:09:28;;;;;;;;;1.40;1.40;;;;;16.28;60.54;99028.75;5136102;27;8984;-59
2022/11/15 11:11:56;;;;;;;;;0.00;0.00;;;;;16.17;60.86;99022.09;5136400;27;8822;-59
2022/11/15 11:14:26;;;;;;;;;0.00;0.00;;;;;16.09;61.07;99030.22;5136428;27;8844;-58
2022/11/15 11:16:54;;;;;;;;;0.25;0.25;;;;;15.96;60.29;99024.59;5136656;27;8866;-58
2022/11/15 11:19:22;;;;;;;;;0.00;0.00;;;;;15.85;60.26;99031.22;5136415;27;8825;-58
2022/11/15 11:21:50;;;;;;;;;2.40;1.80;;;;;15.76;60.51;99032.28;5135867;27;8848;-56
2022/11/15 11:24:18;;;;;;;;;0.50;0.00;;;;;15.70;60.17;99024.94;5135425;27;8965;-57
2022/11/15 11:26:46;;;;;;;;;0.00;0.00;;;;;15.66;60.71;99029.00;5135757;27;8833;-57
2022/11/15 11:29:20;;;;;;;;;0.60;0.00;;;;;15.65;60.24;99026.47;5135488;27;8864;-57
2022/11/15 11:31:48;;;;;;;;;1.00;1.00;;;;;15.64;60.65;99022.13;5135105;27;8806;-57
2022/11/15 11:34:17;;;;;;;;;1.00;0.75;;;;;15.63;60.30;99010.53;5135539;27;8826;-57
2022/11/15 11:36:46;;;;;;;;;1.00;0.50;;;;;15.68;60.63;99000.13;5135790;27;8975;-58
2022/11/15 11:39:14;;;;;;;;;0.00;0.00;;;;;15.80;59.99;99005.91;5136256;27;8854;-56
2022/11/15 11:41:41;;;;;;;;;0.00;0.00;;;;;15.86;59.38;98997.97;5134337;27;8802;-59
2022/11/15 11:44:09;;;;;;;;;0.00;0.00;;;;;15.95;58.93;98996.09;5134997;27;8833;-58
2022/11/15 11:46:37;;;;;;;;;0.00;0.00;;;;;16.02;58.60;98989.84;5134350;27;8844;-59
2022/11/15 11:49:06;;;;;;;;;1.00;1.00;;;;;16.05;58.14;98993.97;5135122;27;8860;-58
2022/11/15 11:51:34;;;;;;;;;0.00;0.00;;;;;15.99;58.02;98987.50;5134131;27;8906;-58
2022/11/15 11:54:01;;;;;;;;;1.00;1.00;;;;;16.08;57.54;98980.22;5133929;27;8814;-58
2022/11/15 11:56:29;;;;;;;;;0.60;0.60;;;;;16.27;56.75;98965.25;5135194;27;8914;-58